メインページ
METAR-TAF:

METAR-TAF

空港 :

Lamerd, イラン

緯度: 27-22-22N, 経度: 53-11-20E, 海抜: 408m

現時点の気象観測

当レポートは2時間42分前の15:00(UTC)に作成
無風
気温 18°C
湿度 39%
気圧 1021 hPa
視程10km以上
1,500メートル以下は雲なし、積乱雲なし

METAR: OISR 171500Z 00000KT CAVOK 18/04 Q1021

時間: 21:12 (17:42 UTC)


TAF: 見つかりません

4,000以上の空港の気象観測と天気予報(METAR報とTAF報)

利用可能な観測所は地図上に黄色い丸と赤い丸で示す。

丸の上にカーソルを重ねると観測所名を参照できる。

次にクリックすると気象観測と天気予報を参照できる。

マップの切り替え:黒色「×」印の緑ボタンをクリックして拡大、「-」印の緑ボタンをクリックして縮小、緑色の三角印をクリックして隣りの地図に切り替え


METAR-TAF: